createdAt,value
2018-05-07T00:01:46.294Z,52.66
2018-05-07T00:04:15.624Z,52.84
2018-05-07T00:06:44.001Z,52.46
2018-05-07T00:09:13.231Z,53.00
2018-05-07T00:11:41.682Z,53.05
2018-05-07T00:14:09.929Z,53.13
2018-05-07T00:16:38.740Z,53.06
2018-05-07T00:19:07.105Z,53.06
2018-05-07T00:21:35.458Z,53.08
2018-05-07T00:24:04.589Z,53.29
2018-05-07T00:26:33.082Z,53.14
2018-05-07T00:29:01.700Z,53.09
2018-05-07T00:31:30.041Z,53.54
2018-05-07T00:33:58.394Z,53.67
2018-05-07T00:36:26.741Z,53.45
2018-05-07T00:38:56.179Z,53.47
2018-05-07T00:41:24.840Z,53.69
2018-05-07T00:43:53.967Z,53.56
2018-05-07T00:46:22.291Z,53.94
2018-05-07T00:48:50.657Z,53.86
2018-05-07T00:51:19.002Z,53.90
2018-05-07T00:53:47.972Z,54.02
2018-05-07T00:56:17.126Z,54.01
2018-05-07T00:58:45.485Z,53.89
2018-05-07T01:01:13.927Z,53.88
2018-05-07T01:03:43.281Z,53.88
2018-05-07T01:06:11.661Z,54.27
2018-05-07T01:08:40.007Z,54.08
2018-05-07T01:11:08.358Z,54.00
2018-05-07T01:13:37.510Z,53.70
2018-05-07T01:16:06.732Z,53.60
2018-05-07T01:18:35.122Z,53.70
2018-05-07T01:21:04.278Z,53.58
2018-05-07T01:23:32.650Z,53.83
2018-05-07T01:26:01.100Z,53.77
2018-05-07T01:28:30.840Z,53.81
2018-05-07T01:30:59.176Z,53.97
2018-05-07T01:33:28.277Z,53.73
2018-05-07T01:35:57.386Z,54.19
2018-05-07T01:38:26.624Z,54.20
2018-05-07T01:40:55.873Z,53.92
2018-05-07T01:43:25.010Z,53.86
2018-05-07T01:45:53.346Z,53.78
2018-05-07T01:48:22.691Z,53.59
2018-05-07T01:50:52.059Z,54.02
2018-05-07T01:53:20.426Z,54.02
2018-05-07T01:55:49.565Z,54.17
2018-05-07T01:58:17.887Z,54.05
2018-05-07T02:00:47.049Z,54.20
2018-05-07T02:03:15.393Z,54.46
2018-05-07T02:05:43.759Z,54.10
2018-05-07T02:08:13.009Z,54.38
2018-05-07T02:10:42.270Z,54.49
2018-05-07T02:13:10.597Z,54.58
2018-05-07T02:15:38.965Z,54.56
2018-05-07T02:18:07.309Z,54.69
2018-05-07T02:20:35.716Z,54.70
2018-05-07T02:23:04.896Z,54.66
2018-05-07T02:25:33.273Z,55.07
2018-05-07T02:28:01.661Z,55.10
2018-05-07T02:30:30.063Z,55.32
2018-05-07T02:32:58.437Z,55.18
2018-05-07T02:35:27.578Z,55.31
2018-05-07T02:37:56.701Z,55.41
2018-05-07T02:40:25.041Z,55.60
2018-05-07T02:42:54.135Z,55.56
2018-05-07T02:45:23.233Z,55.03
2018-05-07T02:47:52.476Z,55.50
2018-05-07T02:50:20.917Z,55.55
2018-05-07T02:52:50.738Z,55.80
2018-05-07T02:55:19.857Z,55.80
2018-05-07T02:57:48.182Z,55.67
2018-05-07T03:00:18.251Z,55.71
2018-05-07T03:02:46.577Z,55.98
2018-05-07T03:05:14.916Z,56.31
2018-05-07T03:07:43.679Z,56.51
2018-05-07T03:10:12.087Z,56.43
2018-05-07T03:12:40.462Z,56.36
2018-05-07T03:15:08.788Z,56.55
2018-05-07T03:17:38.303Z,56.64
2018-05-07T03:20:08.013Z,56.68
2018-05-07T03:22:37.455Z,56.71
2018-05-07T03:25:05.794Z,57.15
2018-05-07T03:27:34.943Z,56.95
2018-05-07T03:30:03.306Z,57.26
2018-05-07T03:32:31.669Z,57.20
2018-05-07T03:35:00.690Z,57.19
2018-05-07T03:37:29.024Z,57.03
2018-05-07T03:39:58.217Z,57.28
2018-05-07T03:42:28.237Z,57.19
2018-05-07T03:44:57.360Z,57.47
2018-05-07T03:47:25.771Z,57.47
2018-05-07T03:49:54.117Z,57.35
2018-05-07T03:52:22.498Z,57.43
2018-05-07T03:54:50.827Z,57.57
2018-05-07T03:57:19.177Z,57.60
2018-05-07T03:59:48.258Z,57.68
2018-05-07T04:02:16.918Z,58.06
2018-05-07T04:04:45.297Z,57.83
2018-05-07T04:07:14.395Z,57.67
2018-05-07T04:09:44.800Z,57.86
2018-05-07T04:12:14.084Z,57.87
2018-05-07T04:14:42.462Z,57.75
2018-05-07T04:20:41.949Z,57.67
2018-05-07T04:23:27.959Z,57.77
2018-05-07T04:25:56.283Z,57.91
2018-05-07T04:28:25.365Z,57.96
2018-05-07T04:30:54.520Z,57.94
2018-05-07T04:33:23.004Z,58.34
2018-05-07T04:35:51.528Z,58.18
2018-05-07T04:38:20.632Z,58.16
2018-05-07T04:40:49.745Z,58.24
2018-05-07T04:43:18.092Z,58.34
2018-05-07T04:45:46.440Z,58.53
2018-05-07T04:48:14.786Z,58.49
2018-05-07T04:50:43.221Z,58.42
2018-05-07T04:53:12.050Z,58.42
2018-05-07T04:55:41.356Z,58.50
2018-05-07T04:58:09.778Z,58.38
2018-05-07T05:00:38.834Z,58.54
2018-05-07T05:03:07.538Z,58.23
2018-05-07T05:05:35.922Z,58.48
2018-05-07T05:08:04.270Z,58.16
2018-05-07T05:10:32.628Z,58.22
2018-05-07T05:13:01.751Z,58.26
2018-05-07T05:15:30.835Z,58.15
2018-05-07T05:17:59.235Z,57.93
2018-05-07T05:20:27.565Z,57.73
2018-05-07T05:22:55.892Z,58.15
2018-05-07T05:25:24.252Z,57.85
2018-05-07T05:27:52.617Z,57.31
2018-05-07T05:30:21.751Z,57.27
2018-05-07T05:32:50.332Z,57.26
2018-05-07T05:35:18.723Z,57.10
2018-05-07T05:37:47.099Z,57.27
2018-05-07T05:40:15.485Z,56.85
2018-05-07T05:42:43.850Z,56.84
2018-05-07T05:45:12.210Z,56.91
2018-05-07T05:47:40.585Z,56.88
2018-05-07T05:50:08.999Z,56.38
2018-05-07T05:52:37.396Z,56.29
2018-05-07T05:55:05.808Z,56.42
2018-05-07T05:57:35.000Z,56.40
2018-05-07T06:00:04.116Z,56.48
2018-05-07T06:02:32.462Z,55.98
2018-05-07T06:05:00.783Z,55.42
2018-05-07T06:07:30.022Z,55.36
2018-05-07T06:09:59.040Z,55.74
2018-05-07T06:12:28.349Z,54.85
2018-05-07T06:14:57.560Z,54.37
2018-05-07T06:17:27.845Z,54.46
2018-05-07T06:19:57.416Z,54.32
2018-05-07T06:22:25.925Z,54.70
2018-05-07T06:24:54.844Z,53.87
2018-05-07T06:27:24.977Z,53.89
2018-05-07T06:29:53.548Z,53.28
2018-05-07T06:32:22.695Z,53.26
2018-05-07T06:34:51.089Z,52.68
2018-05-07T06:37:19.471Z,52.34
2018-05-07T06:39:49.779Z,52.95
2018-05-07T06:42:19.080Z,52.30
2018-05-07T06:44:47.443Z,52.36
2018-05-07T06:47:15.932Z,51.46
2018-05-07T06:49:44.298Z,51.61
2018-05-07T06:52:12.700Z,51.25
2018-05-07T06:54:41.030Z,50.71
2018-05-07T06:57:10.154Z,50.44
2018-05-07T06:59:38.634Z,49.99
2018-05-07T07:02:07.707Z,49.88
2018-05-07T07:04:36.839Z,50.23
2018-05-07T07:07:06.175Z,50.09
2018-05-07T07:09:35.724Z,49.83
2018-05-07T07:12:04.085Z,49.32
2018-05-07T07:14:33.262Z,49.26
2018-05-07T07:17:01.778Z,48.87
2018-05-07T07:19:30.407Z,49.89
2018-05-07T07:21:58.764Z,49.55
2018-05-07T07:24:27.739Z,49.45
2018-05-07T07:26:56.759Z,49.56
2018-05-07T07:29:25.102Z,50.98
2018-05-07T07:31:53.600Z,49.19
2018-05-07T07:34:22.164Z,48.24
2018-05-07T07:36:51.295Z,48.45
2018-05-07T07:39:19.686Z,48.40
2018-05-07T07:41:48.057Z,48.28
2018-05-07T07:44:16.404Z,47.91
2018-05-07T07:46:44.853Z,47.54
2018-05-07T07:49:13.197Z,47.68
2018-05-07T07:51:41.542Z,47.45
2018-05-07T07:54:09.915Z,46.93
2018-05-07T07:56:38.269Z,46.71
2018-05-07T07:59:07.413Z,47.02
2018-05-07T08:01:36.443Z,46.64
2018-05-07T08:04:05.502Z,46.72
2018-05-07T08:06:33.845Z,46.51
2018-05-07T08:09:03.007Z,46.70
2018-05-07T08:11:31.402Z,46.47
2018-05-07T08:14:00.759Z,46.30
2018-05-07T08:16:29.411Z,46.68
2018-05-07T08:18:57.822Z,45.66
2018-05-07T08:21:26.151Z,45.20
2018-05-07T08:23:55.289Z,44.81
2018-05-07T08:26:23.634Z,44.77
2018-05-07T08:28:52.768Z,44.77
2018-05-07T08:31:21.146Z,44.14
2018-05-07T08:33:50.551Z,44.17
2018-05-07T08:36:18.995Z,44.42
2018-05-07T08:38:48.087Z,44.39
2018-05-07T08:41:17.628Z,44.11
2018-05-07T08:43:45.975Z,43.60
2018-05-07T08:46:15.381Z,43.80
2018-05-07T08:48:44.531Z,43.51
2018-05-07T08:51:12.913Z,42.09
2018-05-07T08:53:41.253Z,42.70
2018-05-07T08:56:09.673Z,42.37
2018-05-07T08:58:39.149Z,42.41
2018-05-07T09:01:07.471Z,43.27
2018-05-07T09:03:35.829Z,42.44
2018-05-07T09:06:04.224Z,42.72
2018-05-07T09:08:32.596Z,42.24
2018-05-07T09:11:00.990Z,41.20
2018-05-07T09:13:30.011Z,42.26
2018-05-07T09:15:58.701Z,41.54
2018-05-07T09:21:26.748Z,41.34
2018-05-07T09:23:55.135Z,40.87
2018-05-07T09:26:24.488Z,41.18
2018-05-07T09:28:53.753Z,41.21
2018-05-07T09:31:22.881Z,40.70
2018-05-07T09:33:51.757Z,40.68
2018-05-07T09:36:20.174Z,40.40
2018-05-07T09:38:48.529Z,40.92
2018-05-07T09:41:16.978Z,40.43
2018-05-07T09:43:46.103Z,40.55
2018-05-07T09:46:14.528Z,40.55
2018-05-07T09:48:42.840Z,39.02
2018-05-07T09:51:11.953Z,40.01
2018-05-07T09:53:40.328Z,39.59
2018-05-07T09:56:08.693Z,39.33
2018-05-07T09:58:37.068Z,39.62
2018-05-07T10:01:06.172Z,38.98
2018-05-07T10:03:35.119Z,38.48
2018-05-07T10:06:03.473Z,38.45
2018-05-07T10:08:31.812Z,37.96
2018-05-07T10:11:01.530Z,38.13
2018-05-07T10:13:29.894Z,38.07
2018-05-07T10:15:59.017Z,38.11
2018-05-07T10:18:27.410Z,37.78
2018-05-07T10:20:55.799Z,38.26
2018-05-07T10:23:24.224Z,37.75
2018-05-07T10:25:53.430Z,38.60
2018-05-07T10:28:22.560Z,38.45
2018-05-07T10:30:51.110Z,38.48
2018-05-07T10:33:20.307Z,37.58
2018-05-07T10:35:49.528Z,38.01
2018-05-07T10:38:18.099Z,37.26
2018-05-07T10:40:48.154Z,37.38
2018-05-07T10:43:16.513Z,37.77
2018-05-07T10:45:44.844Z,38.08
2018-05-07T10:48:13.210Z,38.02
2018-05-07T10:50:41.579Z,37.77
2018-05-07T10:53:09.940Z,37.13
2018-05-07T10:55:38.639Z,36.76
2018-05-07T10:58:07.784Z,35.99
2018-05-07T11:00:36.984Z,36.08
2018-05-07T11:03:06.154Z,35.77
2018-05-07T11:05:34.537Z,37.22
2018-05-07T11:08:02.873Z,35.68
2018-05-07T11:10:31.219Z,34.11
2018-05-07T11:13:00.298Z,34.39
2018-05-07T11:15:28.677Z,34.47
2018-05-07T11:17:57.024Z,34.92
2018-05-07T11:20:25.400Z,33.81
2018-05-07T11:22:53.728Z,34.39
2018-05-07T11:25:22.837Z,33.69
2018-05-07T11:27:51.256Z,33.16
2018-05-07T11:30:20.409Z,32.58
2018-05-07T11:32:48.779Z,32.30
2018-05-07T11:35:17.882Z,32.82
2018-05-07T11:37:46.243Z,32.62
2018-05-07T11:40:15.380Z,32.18
2018-05-07T11:42:43.727Z,31.64
2018-05-07T11:45:12.962Z,31.05
2018-05-07T11:47:41.598Z,30.82
2018-05-07T11:50:09.931Z,31.15
2018-05-07T11:52:38.286Z,30.50
2018-05-07T11:55:06.656Z,31.03
2018-05-07T11:57:35.018Z,30.18
2018-05-07T12:00:04.131Z,30.81
2018-05-07T12:02:33.266Z,30.92
2018-05-07T12:05:01.641Z,30.29
2018-05-07T12:07:29.973Z,30.30
2018-05-07T12:09:59.561Z,30.56
2018-05-07T12:12:27.944Z,31.37
2018-05-07T12:14:57.819Z,32.21
2018-05-07T12:17:27.657Z,30.57
2018-05-07T12:19:56.028Z,30.57
2018-05-07T12:22:24.370Z,30.74
2018-05-07T12:24:52.719Z,31.55
2018-05-07T12:27:21.806Z,30.53
2018-05-07T12:29:50.911Z,30.57
2018-05-07T12:32:20.036Z,30.35
2018-05-07T12:34:48.471Z,30.48
2018-05-07T12:37:17.592Z,31.22
2018-05-07T12:39:46.716Z,31.31
2018-05-07T12:42:15.152Z,31.06
2018-05-07T12:44:44.277Z,30.92
2018-05-07T12:47:12.692Z,31.08
2018-05-07T12:49:41.068Z,30.77
2018-05-07T12:52:09.451Z,30.53
2018-05-07T12:54:39.671Z,30.56
2018-05-07T12:57:08.821Z,30.10
2018-05-07T12:59:37.742Z,30.54
2018-05-07T13:02:06.156Z,31.00
2018-05-07T13:04:34.512Z,30.69
2018-05-07T13:07:02.847Z,30.26
2018-05-07T13:09:31.978Z,30.73
2018-05-07T13:12:00.351Z,29.75
2018-05-07T13:14:28.698Z,30.37
2018-05-07T13:16:57.070Z,31.93
2018-05-07T13:19:26.202Z,31.42
2018-05-07T13:21:55.375Z,30.70
2018-05-07T13:24:23.787Z,31.16
2018-05-07T13:26:52.122Z,31.18
2018-05-07T13:29:23.534Z,30.53
2018-05-07T13:31:51.954Z,30.42
2018-05-07T13:34:21.114Z,30.29
2018-05-07T13:36:49.535Z,29.60
2018-05-07T13:39:18.619Z,30.01
2018-05-07T13:41:47.723Z,29.72
2018-05-07T13:44:16.093Z,29.31
2018-05-07T13:46:46.015Z,29.67
2018-05-07T13:49:15.937Z,29.30
2018-05-07T13:51:44.325Z,29.23
2018-05-07T13:54:12.732Z,29.36
2018-05-07T13:56:41.066Z,30.26
2018-05-07T13:59:10.183Z,29.84
2018-05-07T14:01:38.599Z,30.11
2018-05-07T14:04:08.589Z,29.58
2018-05-07T14:06:37.043Z,29.04
2018-05-07T14:09:07.044Z,29.60
2018-05-07T14:11:36.189Z,28.06
2018-05-07T14:14:04.533Z,28.55
2018-05-07T14:16:32.904Z,28.97
2018-05-07T14:19:01.251Z,29.04
2018-05-07T14:21:29.609Z,28.37
2018-05-07T14:23:58.047Z,28.06
2018-05-07T14:26:26.478Z,28.33
2018-05-07T14:28:54.878Z,28.61
2018-05-07T14:31:23.198Z,28.09
2018-05-07T14:33:52.693Z,28.12
2018-05-07T14:36:21.033Z,28.05
2018-05-07T14:38:50.005Z,27.93
2018-05-07T14:41:18.544Z,28.36
2018-05-07T14:43:46.894Z,28.09
2018-05-07T14:46:17.204Z,28.02
2018-05-07T14:48:45.700Z,27.65
2018-05-07T14:51:13.993Z,28.28
2018-05-07T14:53:43.173Z,27.67
2018-05-07T14:56:11.589Z,27.40
2018-05-07T14:58:39.983Z,27.71
2018-05-07T15:01:08.984Z,27.53
2018-05-07T15:03:37.463Z,27.42
2018-05-07T15:06:06.115Z,27.41
2018-05-07T15:08:35.245Z,27.27
2018-05-07T15:11:03.730Z,26.48
2018-05-07T15:13:33.459Z,27.19
2018-05-07T15:16:02.722Z,26.74
2018-05-07T15:18:31.183Z,27.25
2018-05-07T15:21:00.594Z,26.75
2018-05-07T15:23:30.342Z,27.17
2018-05-07T15:25:58.671Z,27.25
2018-05-07T15:28:27.844Z,27.52
2018-05-07T15:30:56.942Z,27.46
2018-05-07T15:33:25.375Z,26.33
2018-05-07T15:35:55.279Z,25.66
2018-05-07T15:38:23.657Z,25.87
2018-05-07T15:40:52.091Z,26.06
2018-05-07T15:43:21.106Z,25.44
2018-05-07T15:45:51.469Z,24.65
2018-05-07T15:48:20.612Z,24.80
2018-05-07T15:50:49.266Z,25.03
2018-05-07T15:53:17.614Z,25.18
2018-05-07T15:55:46.141Z,25.21
2018-05-07T15:58:15.321Z,25.53
2018-05-07T16:00:44.542Z,25.55
2018-05-07T16:03:13.419Z,25.38
2018-05-07T16:05:41.686Z,24.71
2018-05-07T16:08:10.044Z,25.24
2018-05-07T16:10:40.249Z,25.38
2018-05-07T16:13:10.470Z,25.92
2018-05-07T16:15:39.681Z,26.32
2018-05-07T16:18:09.748Z,26.09
2018-05-07T16:20:38.182Z,26.49
2018-05-07T16:23:07.755Z,26.84
2018-05-07T16:25:36.115Z,26.98
2018-05-07T16:28:04.491Z,28.22
2018-05-07T16:30:32.948Z,27.08
2018-05-07T16:33:01.308Z,27.01
2018-05-07T16:35:30.472Z,27.12
2018-05-07T16:37:59.685Z,26.79
2018-05-07T16:40:28.145Z,27.55
2018-05-07T16:42:58.030Z,27.91
2018-05-07T16:45:28.448Z,27.63
2018-05-07T16:47:56.813Z,28.77
2018-05-07T16:50:25.945Z,28.68
2018-05-07T16:52:55.495Z,28.78
2018-05-07T16:55:23.864Z,29.07
2018-05-07T16:57:52.984Z,30.04
2018-05-07T17:00:21.558Z,30.00
2018-05-07T17:02:50.793Z,30.11
2018-05-07T17:05:19.351Z,30.79
2018-05-07T17:07:47.710Z,31.29
2018-05-07T17:10:16.959Z,30.43
2018-05-07T17:12:45.362Z,30.63
2018-05-07T17:15:14.584Z,30.90
2018-05-07T17:17:43.690Z,31.19
2018-05-07T17:20:12.204Z,31.72
2018-05-07T17:22:41.216Z,32.01
2018-05-07T17:25:09.760Z,32.00
2018-05-07T17:27:38.121Z,32.56
2018-05-07T17:30:07.515Z,33.03
2018-05-07T17:32:37.279Z,33.08
2018-05-07T17:35:06.054Z,33.21
2018-05-07T17:37:34.456Z,33.49
2018-05-07T17:40:03.644Z,33.68
2018-05-07T17:42:31.997Z,33.53
2018-05-07T17:45:18.141Z,33.39
2018-05-07T17:51:04.860Z,34.41
2018-05-07T17:53:33.224Z,34.44
2018-05-07T17:56:01.549Z,35.81
2018-05-07T17:58:30.661Z,34.74
2018-05-07T18:01:00.205Z,34.93
2018-05-07T18:03:28.559Z,35.03
2018-05-07T18:05:56.899Z,35.13
2018-05-07T18:08:25.250Z,34.95
2018-05-07T18:10:53.717Z,35.18
2018-05-07T18:13:22.939Z,35.46
2018-05-07T18:15:51.293Z,35.58
2018-05-07T18:18:20.165Z,35.55
2018-05-07T18:20:48.653Z,36.23
2018-05-07T18:23:17.078Z,36.10
2018-05-07T18:25:46.241Z,36.15
2018-05-07T18:28:15.486Z,37.14
2018-05-07T18:30:44.717Z,36.73
2018-05-07T18:33:13.986Z,36.83
2018-05-07T18:35:43.162Z,37.21
2018-05-07T18:38:12.273Z,37.51
2018-05-07T18:40:41.383Z,37.86
2018-05-07T18:43:09.742Z,37.95
2018-05-07T18:45:38.841Z,37.79
2018-05-07T18:48:08.053Z,37.83
2018-05-07T18:50:37.172Z,38.72
2018-05-07T18:53:06.554Z,38.83
2018-05-07T18:55:34.950Z,38.81
2018-05-07T18:58:04.593Z,38.89
2018-05-07T19:00:33.003Z,38.91
2018-05-07T19:03:02.144Z,39.44
2018-05-07T19:05:30.652Z,39.21
2018-05-07T19:07:59.179Z,39.45
2018-05-07T19:10:28.958Z,39.59
2018-05-07T19:12:57.300Z,39.95
2018-05-07T19:15:25.685Z,40.02
2018-05-07T19:17:54.047Z,39.98
2018-05-07T19:20:22.415Z,39.99
2018-05-07T19:22:50.946Z,40.77
2018-05-07T19:25:19.322Z,40.56
2018-05-07T19:27:47.717Z,41.31
2018-05-07T19:30:16.716Z,41.90
2018-05-07T19:32:45.113Z,41.67
2018-05-07T19:35:14.294Z,41.63
2018-05-07T19:37:43.534Z,42.04
2018-05-07T19:40:11.898Z,42.16
2018-05-07T19:42:40.289Z,42.21
2018-05-07T19:45:08.673Z,42.36
2018-05-07T19:47:37.087Z,42.29
2018-05-07T19:50:05.502Z,42.32
2018-05-07T19:52:34.669Z,42.63
2018-05-07T19:55:03.031Z,43.02
2018-05-07T19:57:31.452Z,43.37
2018-05-07T20:00:00.635Z,43.03
2018-05-07T20:02:29.165Z,43.63
2018-05-07T20:04:57.538Z,43.65
2018-05-07T20:07:25.901Z,43.27
2018-05-07T20:09:55.055Z,43.64
2018-05-07T20:12:23.423Z,43.83
2018-05-07T20:14:51.794Z,44.03
2018-05-07T20:17:20.215Z,43.27
2018-05-07T20:19:50.207Z,44.34
2018-05-07T20:22:19.329Z,43.46
2018-05-07T20:24:48.792Z,44.32
2018-05-07T20:27:17.149Z,43.65
2018-05-07T20:29:45.525Z,43.89
2018-05-07T20:32:13.905Z,44.16
2018-05-07T20:34:42.250Z,43.81
2018-05-07T20:37:11.429Z,43.61
2018-05-07T20:39:39.818Z,43.69
2018-05-07T20:42:08.928Z,44.79
2018-05-07T20:44:38.075Z,44.99
2018-05-07T20:47:06.575Z,44.91
2018-05-07T20:49:35.009Z,44.46
2018-05-07T20:52:03.377Z,44.41
2018-05-07T20:54:31.801Z,44.47
2018-05-07T20:57:00.207Z,44.72
2018-05-07T20:59:28.654Z,44.90
2018-05-07T21:01:57.026Z,45.02
2018-05-07T21:04:25.412Z,44.71
2018-05-07T21:06:53.780Z,45.20
2018-05-07T21:09:23.078Z,44.83
2018-05-07T21:11:51.433Z,45.41
2018-05-07T21:14:20.563Z,45.64
2018-05-07T21:16:48.942Z,45.35
2018-05-07T21:19:17.278Z,45.79
2018-05-07T21:21:46.433Z,46.17
2018-05-07T21:24:14.761Z,45.72
2018-05-07T21:26:43.126Z,46.23
2018-05-07T21:29:12.283Z,45.93
2018-05-07T21:31:40.639Z,46.15
2018-05-07T21:34:08.985Z,46.07
2018-05-07T21:36:37.304Z,46.14
2018-05-07T21:39:06.673Z,46.56
2018-05-07T21:41:35.022Z,46.42
2018-05-07T21:44:03.386Z,47.31
2018-05-07T21:46:31.751Z,46.88
2018-05-07T21:49:00.131Z,47.19
2018-05-07T21:51:28.479Z,47.25
2018-05-07T21:53:56.845Z,47.22
2018-05-07T21:56:25.193Z,47.57
2018-05-07T21:58:54.363Z,47.43
2018-05-07T22:01:22.733Z,47.52
2018-05-07T22:03:51.082Z,47.47
2018-05-07T22:06:19.439Z,47.62
2018-05-07T22:08:48.531Z,47.78
2018-05-07T22:11:17.648Z,47.89
2018-05-07T22:13:46.995Z,48.06
2018-05-07T22:16:15.334Z,48.44
2018-05-07T22:18:43.673Z,48.52
2018-05-07T22:21:12.839Z,48.62
2018-05-07T22:23:41.193Z,48.41
2018-05-07T22:26:09.609Z,48.76
2018-05-07T22:28:38.182Z,48.57
2018-05-07T22:31:06.643Z,48.93
2018-05-07T22:33:35.004Z,48.93
2018-05-07T22:36:04.410Z,48.90
2018-05-07T22:38:32.784Z,49.22
2018-05-07T22:41:01.137Z,50.18
2018-05-07T22:43:30.257Z,49.70
2018-05-07T22:45:58.602Z,49.80
2018-05-07T22:48:26.977Z,49.68
2018-05-07T22:50:55.423Z,50.31
2018-05-07T22:53:23.793Z,50.05
2018-05-07T22:55:52.188Z,50.27
2018-05-07T22:58:20.560Z,50.45
2018-05-07T23:00:48.934Z,50.30
2018-05-07T23:03:17.276Z,50.67
2018-05-07T23:05:46.487Z,50.58
2018-05-07T23:08:14.860Z,50.42
2018-05-07T23:10:43.308Z,50.15
2018-05-07T23:13:11.685Z,50.59
2018-05-07T23:15:40.195Z,50.65
2018-05-07T23:18:09.318Z,49.70
2018-05-07T23:20:37.661Z,50.48
2018-05-07T23:23:06.776Z,50.60
2018-05-07T23:25:35.157Z,50.27
2018-05-07T23:28:03.856Z,50.71
2018-05-07T23:30:32.192Z,50.75
2018-05-07T23:33:01.360Z,50.99
2018-05-07T23:35:29.729Z,51.02
2018-05-07T23:37:58.079Z,51.16
2018-05-07T23:40:26.562Z,50.88
2018-05-07T23:42:54.917Z,51.13
2018-05-07T23:45:24.932Z,51.41
2018-05-07T23:47:54.028Z,51.24
2018-05-07T23:50:22.405Z,51.64
2018-05-07T23:52:51.516Z,51.47
2018-05-07T23:55:19.865Z,50.82
2018-05-07T23:57:49.232Z,50.85
